Holmdel Village, New Jersey
Current Conditions -  °F | °C
As of 5:35 AM on Sunday 26 Oct 2014 (Local Time) from KBLM Reporting Station
Few Clouds Few Clouds  
Wind Chill: 54°   Ceiling: Unl
Heat Index: 54°   Visibility: 10mi
Dew Point: 43°   Wind: 8mph
Humidity: 67%   Direction: 280°W
Pressure: 29.59"   Gusts: NA
Location:  40.3764°N, 74.1727°W
Report Text: KBLM 260935Z AUTO 28007KT 10SM FEW050 12/06 A2959 RMK AO1
Loading
Personal Weather Stations






























Interactive Weather Map New forecast layout! Learn more

10-Day Weather Forecast

Advertisements
Track Severe Weather on mobile